createdAt,value
2022-08-26T00:03:35.656Z,7.87
2022-08-26T00:07:36.731Z,8.70
2022-08-26T00:11:38.310Z,8.73
2022-08-26T00:15:40.079Z,8.07
2022-08-26T00:19:40.991Z,8.23
2022-08-26T00:23:43.118Z,7.87
2022-08-26T00:27:44.719Z,7.57
2022-08-26T00:31:45.828Z,8.23
2022-08-26T00:35:47.358Z,8.00
2022-08-26T00:39:48.455Z,8.33
2022-08-26T00:43:50.766Z,8.23
2022-08-26T00:47:58.794Z,9.13
2022-08-26T00:52:03.617Z,8.50
2022-08-26T00:56:10.402Z,8.83
2022-08-26T01:04:38.617Z,10.53
2022-08-26T01:08:40.616Z,9.50
2022-08-26T01:12:51.653Z,9.83
2022-08-26T01:16:52.652Z,8.93
2022-08-26T01:21:18.423Z,9.20
2022-08-26T01:25:20.875Z,8.10
2022-08-26T01:29:23.558Z,8.30
2022-08-26T01:33:45.184Z,8.23
2022-08-26T01:37:49.287Z,9.97
2022-08-26T01:41:54.013Z,9.53
2022-08-26T01:45:56.311Z,9.53
2022-08-26T01:50:01.038Z,9.70
2022-08-26T01:54:06.711Z,8.67
2022-08-26T01:58:22.052Z,9.40
2022-08-26T02:02:23.453Z,9.97
2022-08-26T02:06:25.889Z,9.07
2022-08-26T02:10:27.519Z,9.30
2022-08-26T02:14:31.937Z,8.30
2022-08-26T02:18:36.180Z,8.87
2022-08-26T02:22:37.829Z,8.90
2022-08-26T02:26:40.039Z,7.67
2022-08-26T02:30:41.295Z,9.23
2022-08-26T02:34:42.407Z,10.40
2022-08-26T02:38:43.318Z,9.87
2022-08-26T02:42:44.486Z,9.47
2022-08-26T02:46:47.070Z,10.33
2022-08-26T02:50:48.704Z,8.93
2022-08-26T02:54:49.749Z,8.70
2022-08-26T02:58:51.092Z,9.77
2022-08-26T03:02:54.194Z,8.53
2022-08-26T03:06:55.934Z,10.37
2022-08-26T03:10:56.899Z,8.40
2022-08-26T03:14:57.792Z,9.20
2022-08-26T03:19:01.717Z,10.67
2022-08-26T03:23:02.727Z,10.47
2022-08-26T03:27:07.449Z,9.20
2022-08-26T03:31:08.517Z,8.57
2022-08-26T03:35:10.061Z,8.63
2022-08-26T03:39:12.472Z,9.87
2022-08-26T03:43:16.663Z,9.70
2022-08-26T03:47:18.380Z,10.23
2022-08-26T03:51:19.478Z,9.30
2022-08-26T03:55:26.997Z,8.80
2022-08-26T03:59:28.567Z,8.57
2022-08-26T04:03:48.691Z,9.37
2022-08-26T04:07:51.204Z,8.63
2022-08-26T04:11:52.900Z,9.90
2022-08-26T04:15:53.886Z,9.43
2022-08-26T04:19:54.978Z,10.07
2022-08-26T04:23:56.000Z,11.03
2022-08-26T04:27:58.805Z,10.10
2022-08-26T04:31:59.734Z,10.70
2022-08-26T04:36:04.840Z,10.10
2022-08-26T04:40:08.733Z,10.33
2022-08-26T04:44:10.301Z,10.27
2022-08-26T04:48:11.318Z,11.70
2022-08-26T04:52:12.348Z,11.80
2022-08-26T04:56:13.737Z,11.87
2022-08-26T05:00:14.999Z,11.70
2022-08-26T05:04:18.910Z,11.00
2022-08-26T05:08:22.053Z,10.53
2022-08-26T05:12:23.868Z,9.60
2022-08-26T05:16:24.922Z,10.53
2022-08-26T05:20:26.286Z,9.70
2022-08-26T05:24:28.114Z,10.27
2022-08-26T05:28:29.943Z,10.37
2022-08-26T05:32:31.351Z,9.50
2022-08-26T05:36:34.081Z,10.20
2022-08-26T05:40:40.138Z,9.10
2022-08-26T05:44:54.121Z,9.63
2022-08-26T05:48:44.615Z,11.30
2022-08-26T05:52:45.608Z,11.10
2022-08-26T05:56:46.605Z,10.27
2022-08-26T06:00:56.657Z,11.23
2022-08-26T06:04:57.690Z,10.43
2022-08-26T06:09:01.173Z,9.77
2022-08-26T06:13:09.417Z,11.23
2022-08-26T06:17:04.894Z,11.43
2022-08-26T06:21:23.912Z,11.93
2022-08-26T06:25:40.033Z,10.37
2022-08-26T06:29:41.133Z,12.67
2022-08-26T06:33:43.533Z,10.80
2022-08-26T06:37:44.534Z,9.97
2022-08-26T06:41:46.275Z,9.47
2022-08-26T06:45:47.560Z,9.40
2022-08-26T06:49:49.477Z,10.10
2022-08-26T06:53:53.398Z,9.97
2022-08-26T06:57:55.812Z,10.00
2022-08-26T07:01:56.883Z,10.83
2022-08-26T07:06:02.921Z,11.27
2022-08-26T07:10:07.942Z,10.13
2022-08-26T07:14:09.269Z,10.00
2022-08-26T07:18:10.528Z,10.87
2022-08-26T07:22:12.514Z,10.87
2022-08-26T07:26:17.550Z,10.00
2022-08-26T07:30:18.743Z,11.20
2022-08-26T07:34:20.061Z,11.13
2022-08-26T07:38:21.298Z,12.37
2022-08-26T07:42:22.400Z,11.53
2022-08-26T07:46:27.174Z,12.87
2022-08-26T07:50:48.955Z,11.27
2022-08-26T07:54:31.218Z,12.33
2022-08-26T07:58:32.422Z,12.03
2022-08-26T08:02:33.553Z,12.87
2022-08-26T08:06:36.986Z,12.47
2022-08-26T08:10:38.583Z,13.73
2022-08-26T08:14:39.857Z,13.13
2022-08-26T08:18:41.273Z,11.80
2022-08-26T08:22:43.645Z,12.53
2022-08-26T08:26:45.549Z,11.97
2022-08-26T08:30:46.712Z,12.40
2022-08-26T08:34:47.964Z,13.40
2022-08-26T08:38:49.301Z,12.30
2022-08-26T08:43:08.999Z,13.50
2022-08-26T08:47:17.063Z,14.10
2022-08-26T08:51:28.292Z,15.73
2022-08-26T08:55:33.903Z,13.77
2022-08-26T08:59:38.281Z,14.77
2022-08-26T09:03:55.789Z,13.57
2022-08-26T09:08:08.064Z,13.70
2022-08-26T09:16:54.984Z,14.37
2022-08-26T09:20:59.393Z,14.87
2022-08-26T09:25:01.447Z,14.97
2022-08-26T09:29:10.249Z,15.57
2022-08-26T09:33:15.330Z,14.80
2022-08-26T09:37:38.485Z,16.50
2022-08-26T09:41:40.346Z,14.30
2022-08-26T09:45:50.767Z,13.57
2022-08-26T09:50:09.673Z,14.83
2022-08-26T09:54:12.939Z,15.30
2022-08-26T09:58:34.906Z,20.13
2022-08-26T10:02:41.035Z,17.33
2022-08-26T10:06:56.636Z,20.07
2022-08-26T10:11:02.533Z,21.53
2022-08-26T10:15:08.549Z,21.30
2022-08-26T10:19:13.526Z,20.47
2022-08-26T10:23:19.746Z,19.13
2022-08-26T10:27:29.564Z,19.27
2022-08-26T10:31:43.740Z,17.97
2022-08-26T10:35:51.315Z,16.53
2022-08-26T10:39:57.084Z,16.17
2022-08-26T10:44:00.854Z,17.37
2022-08-26T10:48:08.490Z,21.37
2022-08-26T10:52:22.333Z,21.23
2022-08-26T10:56:36.277Z,23.40
2022-08-26T11:00:59.850Z,23.03
2022-08-26T11:05:22.955Z,20.20
2022-08-26T11:09:47.503Z,21.27
2022-08-26T11:14:02.631Z,18.87
2022-08-26T11:18:08.978Z,20.07
2022-08-26T11:22:30.417Z,19.60
2022-08-26T11:26:56.265Z,22.97
2022-08-26T11:30:42.116Z,23.03
2022-08-26T11:34:58.776Z,20.60
2022-08-26T11:39:02.723Z,19.80
2022-08-26T11:43:19.968Z,19.83
2022-08-26T11:47:29.921Z,19.70
2022-08-26T11:51:31.927Z,19.17
2022-08-26T11:55:37.137Z,15.83
2022-08-26T11:59:41.405Z,16.43
2022-08-26T12:03:48.998Z,15.63
2022-08-26T12:07:51.094Z,15.77
2022-08-26T12:12:12.860Z,15.47
2022-08-26T12:16:18.216Z,16.27
2022-08-26T12:20:46.012Z,16.63
2022-08-26T12:24:53.292Z,15.03
2022-08-26T12:29:01.883Z,18.43
2022-08-26T12:33:22.089Z,18.00
2022-08-26T12:37:13.337Z,18.37
2022-08-26T12:41:38.944Z,18.53
2022-08-26T12:45:43.651Z,21.23
2022-08-26T12:49:45.191Z,20.40
2022-08-26T12:53:46.500Z,18.37
2022-08-26T12:57:47.487Z,20.17
2022-08-26T13:01:50.173Z,19.63
2022-08-26T13:05:51.310Z,19.33
2022-08-26T13:09:57.813Z,20.23
2022-08-26T13:14:10.643Z,19.77
2022-08-26T13:18:12.055Z,14.80
2022-08-26T13:22:15.451Z,18.53
2022-08-26T13:26:17.640Z,22.97
2022-08-26T13:30:19.244Z,25.07
2022-08-26T13:34:22.055Z,28.73
2022-08-26T13:38:33.301Z,37.30
2022-08-26T13:42:26.185Z,44.93
2022-08-26T13:46:28.208Z,51.60
2022-08-26T13:50:29.641Z,39.50
2022-08-26T13:54:30.652Z,38.73
2022-08-26T13:58:31.708Z,47.00
2022-08-26T14:02:32.817Z,47.13
2022-08-26T14:06:33.946Z,46.10
2022-08-26T14:10:35.311Z,44.33
2022-08-26T14:14:36.235Z,45.60
2022-08-26T14:18:41.877Z,44.07
2022-08-26T14:22:52.133Z,47.43
2022-08-26T14:26:47.931Z,51.50
2022-08-26T14:30:52.900Z,45.83
2022-08-26T14:34:55.078Z,46.20
2022-08-26T14:39:00.207Z,43.27
2022-08-26T14:43:01.905Z,51.40
2022-08-26T14:47:06.101Z,53.67
2022-08-26T14:51:07.260Z,65.60
2022-08-26T14:55:09.233Z,44.17
2022-08-26T14:59:10.836Z,38.13
2022-08-26T15:07:14.263Z,38.30
2022-08-26T15:11:17.380Z,43.27
2022-08-26T15:15:18.841Z,48.57
2022-08-26T15:19:21.060Z,45.10
2022-08-26T15:23:22.166Z,45.90
2022-08-26T15:27:23.969Z,45.17
2022-08-26T15:31:29.341Z,41.00
2022-08-26T15:35:30.448Z,36.97
2022-08-26T15:39:34.001Z,36.33
2022-08-26T15:43:37.009Z,36.13
2022-08-26T15:47:55.330Z,33.70
2022-08-26T15:51:45.259Z,35.83
2022-08-26T15:55:45.192Z,34.63
2022-08-26T15:59:46.357Z,35.97
2022-08-26T16:03:48.080Z,38.83
2022-08-26T16:07:49.303Z,40.80
2022-08-26T16:11:50.630Z,42.50
2022-08-26T16:15:53.225Z,43.37
2022-08-26T16:19:54.312Z,42.17
2022-08-26T16:23:56.750Z,46.13
2022-08-26T16:27:58.578Z,47.33
2022-08-26T16:32:00.198Z,50.03
2022-08-26T16:36:01.585Z,48.63
2022-08-26T16:40:04.480Z,48.53
2022-08-26T16:44:07.185Z,50.00
2022-08-26T16:48:09.221Z,50.33
2022-08-26T16:52:11.221Z,45.50
2022-08-26T16:56:16.043Z,49.80
2022-08-26T17:00:20.973Z,48.87
2022-08-26T17:04:22.577Z,47.53
2022-08-26T17:08:28.528Z,47.43
2022-08-26T17:12:27.845Z,45.87
2022-08-26T17:16:29.048Z,44.33
2022-08-26T17:20:30.126Z,43.73
2022-08-26T17:24:33.760Z,41.77
2022-08-26T17:28:35.116Z,41.10
2022-08-26T17:32:36.647Z,41.43
2022-08-26T17:36:37.785Z,38.57
2022-08-26T17:40:39.033Z,37.83
2022-08-26T17:44:40.578Z,38.67
2022-08-26T17:48:41.811Z,36.30
2022-08-26T17:52:44.354Z,35.13
2022-08-26T17:56:47.612Z,35.70
2022-08-26T18:00:51.763Z,31.73
2022-08-26T18:04:52.958Z,30.60
2022-08-26T18:08:54.401Z,30.57
2022-08-26T18:12:55.632Z,29.10
2022-08-26T18:16:56.783Z,26.53
2022-08-26T18:21:01.479Z,27.57
2022-08-26T18:25:04.788Z,26.80
2022-08-26T18:29:07.408Z,24.23
2022-08-26T18:33:10.002Z,26.33
2022-08-26T18:41:14.509Z,24.57
2022-08-26T18:45:16.243Z,25.43
2022-08-26T18:49:20.462Z,26.23
2022-08-26T18:53:21.705Z,24.13
2022-08-26T18:57:23.042Z,24.43
2022-08-26T19:01:27.356Z,23.87
2022-08-26T19:05:27.267Z,25.00
2022-08-26T19:09:30.275Z,28.43
2022-08-26T19:13:31.407Z,29.12
2022-08-26T19:17:32.540Z,30.07
2022-08-26T19:21:36.091Z,32.53
2022-08-26T19:25:46.508Z,32.63
2022-08-26T19:29:47.817Z,31.17
2022-08-26T19:33:49.587Z,32.23
2022-08-26T19:37:50.714Z,30.23
2022-08-26T19:41:51.806Z,27.97
2022-08-26T19:45:52.980Z,28.13
2022-08-26T19:49:54.875Z,29.10
2022-08-26T19:53:58.439Z,26.03
2022-08-26T19:57:59.545Z,27.33
2022-08-26T20:02:01.930Z,28.33
2022-08-26T20:06:05.729Z,26.67
2022-08-26T20:10:09.284Z,26.77
2022-08-26T20:14:10.681Z,26.83
2022-08-26T20:18:30.368Z,27.70
2022-08-26T20:22:32.718Z,26.60
2022-08-26T20:26:36.939Z,29.37
2022-08-26T20:30:39.049Z,28.90
2022-08-26T20:34:40.195Z,31.83
2022-08-26T20:38:41.638Z,26.60
2022-08-26T20:42:42.989Z,27.43
2022-08-26T20:46:44.537Z,26.77
2022-08-26T20:50:45.888Z,28.80
2022-08-26T20:54:47.048Z,26.03
2022-08-26T20:58:48.191Z,27.13
2022-08-26T21:02:50.067Z,26.30
2022-08-26T21:06:53.807Z,26.03
2022-08-26T21:10:55.682Z,27.13
2022-08-26T21:14:57.269Z,27.50
2022-08-26T21:18:58.423Z,27.77
2022-08-26T21:23:01.419Z,26.43
2022-08-26T21:27:02.559Z,26.00
2022-08-26T21:31:06.836Z,27.63
2022-08-26T21:35:08.999Z,27.00
2022-08-26T21:39:12.085Z,25.70
2022-08-26T21:43:17.854Z,25.30
2022-08-26T21:47:17.098Z,29.03
2022-08-26T21:51:20.510Z,26.03
2022-08-26T21:55:21.604Z,27.47
2022-08-26T21:59:22.713Z,26.30
2022-08-26T22:03:24.243Z,27.10
2022-08-26T22:07:25.548Z,27.40
2022-08-26T22:11:28.068Z,25.60
2022-08-26T22:15:30.973Z,28.07
2022-08-26T22:19:32.068Z,27.93
2022-08-26T22:23:37.344Z,26.53
2022-08-26T22:27:40.513Z,27.73
2022-08-26T22:31:41.309Z,28.87
2022-08-26T22:35:45.498Z,26.70
2022-08-26T22:39:46.503Z,27.87
2022-08-26T22:43:47.413Z,26.40
2022-08-26T22:47:48.504Z,26.63
2022-08-26T22:51:50.199Z,25.57
2022-08-26T22:55:51.240Z,27.07
2022-08-26T22:59:52.355Z,25.93
2022-08-26T23:03:53.353Z,26.87
2022-08-26T23:07:56.061Z,26.93
2022-08-26T23:11:57.563Z,26.93
2022-08-26T23:16:00.367Z,26.90
2022-08-26T23:20:05.085Z,26.87
2022-08-26T23:24:07.235Z,26.03
2022-08-26T23:28:08.580Z,23.30
2022-08-26T23:32:09.957Z,25.17
2022-08-26T23:36:15.790Z,25.20
2022-08-26T23:40:31.547Z,24.83
2022-08-26T23:44:33.737Z,25.20
2022-08-26T23:48:34.633Z,24.27
2022-08-26T23:52:54.152Z,22.60
2022-08-26T23:56:55.156Z,23.07
